createdAt,value
2022-12-22T00:02:43.619Z,3.50
2022-12-22T00:05:35.997Z,4.22
2022-12-22T00:08:21.699Z,6.50
2022-12-22T00:11:07.066Z,4.72
2022-12-22T00:13:52.707Z,5.40
2022-12-22T00:16:38.616Z,5.10
2022-12-22T00:19:31.859Z,3.80
2022-12-22T00:22:20.615Z,2.88
2022-12-22T00:25:06.120Z,2.20
2022-12-22T00:27:51.698Z,1.88
2022-12-22T00:30:37.172Z,1.95
2022-12-22T00:33:24.055Z,2.60
2022-12-22T00:36:09.680Z,2.13
2022-12-22T00:38:55.075Z,1.55
2022-12-22T00:41:40.701Z,1.20
2022-12-22T00:44:26.020Z,1.05
2022-12-22T00:47:11.760Z,2.10
2022-12-22T00:49:59.640Z,2.22
2022-12-22T00:52:45.023Z,2.50
2022-12-22T00:55:36.167Z,3.00
2022-12-22T00:58:22.776Z,6.45
2022-12-22T01:01:08.220Z,4.72
2022-12-22T01:03:53.600Z,3.80
2022-12-22T01:06:38.896Z,4.05
2022-12-22T01:09:24.769Z,4.25
2022-12-22T01:12:10.289Z,3.33
2022-12-22T01:14:55.645Z,2.92
2022-12-22T01:17:41.028Z,3.10
2022-12-22T01:20:27.088Z,2.85
2022-12-22T01:23:12.592Z,2.97
2022-12-22T01:25:57.965Z,2.78
2022-12-22T01:28:43.250Z,2.85
2022-12-22T01:31:45.059Z,3.10
2022-12-22T01:34:30.547Z,2.20
2022-12-22T01:37:15.752Z,1.42
2022-12-22T01:40:01.435Z,0.50
2022-12-22T01:42:49.773Z,0.40
2022-12-22T01:45:40.478Z,0.30
2022-12-22T01:48:37.398Z,0.40
2022-12-22T01:51:29.570Z,0.40
2022-12-22T01:54:16.538Z,0.40
2022-12-22T01:57:02.922Z,0.30
2022-12-22T01:59:48.529Z,0.30
2022-12-22T02:02:35.307Z,0.43
2022-12-22T02:05:24.640Z,0.35
2022-12-22T02:08:15.973Z,0.40
2022-12-22T02:11:10.536Z,0.32
2022-12-22T02:14:07.627Z,0.50
2022-12-22T02:17:03.714Z,0.40
2022-12-22T02:20:10.931Z,0.32
2022-12-22T02:23:34.041Z,0.38
2022-12-22T02:26:49.466Z,0.40
2022-12-22T02:29:39.314Z,0.45
2022-12-22T02:32:25.689Z,0.40
2022-12-22T02:35:11.290Z,0.47
2022-12-22T02:38:26.701Z,0.40
2022-12-22T02:41:41.696Z,0.40
2022-12-22T02:44:36.189Z,0.32
2022-12-22T02:47:32.206Z,0.40
2022-12-22T02:50:24.740Z,0.45
2022-12-22T02:53:10.877Z,0.40
2022-12-22T02:55:56.220Z,0.40
2022-12-22T02:58:42.618Z,0.50
2022-12-22T03:01:28.197Z,0.60
2022-12-22T03:04:13.443Z,0.47
2022-12-22T03:06:58.884Z,0.50
2022-12-22T03:09:44.226Z,0.40
2022-12-22T03:12:29.737Z,0.38
2022-12-22T03:15:15.029Z,0.38
2022-12-22T03:18:00.464Z,0.43
2022-12-22T03:20:45.937Z,0.35
2022-12-22T03:23:31.314Z,7.60
2022-12-22T03:25:58.020Z,0.98
2022-12-22T03:28:27.836Z,0.50
2022-12-22T03:31:04.696Z,0.50
2022-12-22T03:33:32.183Z,0.40
2022-12-22T03:35:59.966Z,0.40
2022-12-22T03:38:26.843Z,0.40
2022-12-22T03:40:53.825Z,0.30
2022-12-22T03:43:39.416Z,0.30
2022-12-22T03:46:24.995Z,0.30
2022-12-22T03:49:10.212Z,0.40
2022-12-22T03:51:47.985Z,0.40
2022-12-22T03:54:17.132Z,0.35
2022-12-22T03:56:44.254Z,0.50
2022-12-22T03:59:11.728Z,0.40
2022-12-22T04:01:44.430Z,1.00
2022-12-22T04:04:13.208Z,0.88
2022-12-22T04:06:40.373Z,1.70
2022-12-22T04:09:07.060Z,1.10
2022-12-22T04:11:52.480Z,1.17
2022-12-22T04:14:20.927Z,0.68
2022-12-22T04:16:48.062Z,0.80
2022-12-22T04:19:16.008Z,0.95
2022-12-22T04:21:43.685Z,0.82
2022-12-22T04:24:12.383Z,0.70
2022-12-22T04:26:39.344Z,0.60
2022-12-22T04:29:06.100Z,0.45
2022-12-22T04:31:32.881Z,0.40
2022-12-22T04:33:59.576Z,0.43
2022-12-22T04:36:26.280Z,0.40
2022-12-22T04:38:52.948Z,0.40
2022-12-22T04:41:19.660Z,0.60
2022-12-22T04:43:46.460Z,1.83
2022-12-22T04:46:13.297Z,0.70
2022-12-22T04:48:40.232Z,0.75
2022-12-22T04:51:06.963Z,1.40
2022-12-22T04:53:33.790Z,1.67
2022-12-22T04:56:03.138Z,1.10
2022-12-22T04:58:30.232Z,1.00
2022-12-22T05:00:57.063Z,0.70
2022-12-22T05:03:24.402Z,1.63
2022-12-22T05:05:51.198Z,6.40
2022-12-22T05:08:17.851Z,4.97
2022-12-22T05:10:44.562Z,1.50
2022-12-22T05:13:11.327Z,0.60
2022-12-22T05:15:38.167Z,0.38
2022-12-22T05:18:05.102Z,0.35
2022-12-22T05:20:32.150Z,0.30
2022-12-22T05:22:59.212Z,0.20
2022-12-22T05:25:29.960Z,0.43
2022-12-22T05:27:59.681Z,0.45
2022-12-22T05:30:26.544Z,0.30
2022-12-22T05:32:53.358Z,0.30
2022-12-22T05:35:20.068Z,0.40
2022-12-22T05:37:46.798Z,0.40
2022-12-22T05:40:13.550Z,0.70
2022-12-22T05:42:40.276Z,0.40
2022-12-22T05:45:16.214Z,0.40
2022-12-22T05:47:44.849Z,0.38
2022-12-22T05:50:13.146Z,0.28
2022-12-22T05:52:40.277Z,0.40
2022-12-22T05:55:08.030Z,0.40
2022-12-22T05:57:35.587Z,0.35
2022-12-22T06:00:03.688Z,0.30
2022-12-22T06:02:42.692Z,0.40
2022-12-22T06:05:10.815Z,0.30
2022-12-22T06:07:37.974Z,0.40
2022-12-22T06:10:11.576Z,0.30
2022-12-22T06:12:39.490Z,0.40
2022-12-22T06:15:07.162Z,0.40
2022-12-22T06:17:37.833Z,0.40
2022-12-22T06:20:09.493Z,0.80
2022-12-22T06:22:36.298Z,0.63
2022-12-22T06:25:03.277Z,0.50
2022-12-22T06:27:29.983Z,0.85
2022-12-22T06:29:56.678Z,0.98
2022-12-22T06:32:23.387Z,0.50
2022-12-22T06:34:50.078Z,0.57
2022-12-22T06:37:16.741Z,0.80
2022-12-22T06:39:43.405Z,0.77
2022-12-22T06:42:29.177Z,0.50
2022-12-22T06:44:55.890Z,0.90
2022-12-22T06:47:22.993Z,0.70
2022-12-22T06:49:49.923Z,0.57
2022-12-22T06:52:16.621Z,0.40
2022-12-22T06:54:43.301Z,0.50
2022-12-22T06:57:09.994Z,0.40
2022-12-22T06:59:36.645Z,0.70
2022-12-22T07:02:03.698Z,0.70
2022-12-22T07:04:31.576Z,0.40
2022-12-22T07:06:58.265Z,0.32
2022-12-22T07:09:24.955Z,0.40
2022-12-22T07:11:51.783Z,0.52
2022-12-22T07:14:18.464Z,0.40
2022-12-22T07:16:46.910Z,0.50
2022-12-22T07:19:14.083Z,0.60
2022-12-22T07:21:40.777Z,0.60
2022-12-22T07:24:07.773Z,0.40
2022-12-22T07:26:34.459Z,0.60
2022-12-22T07:29:01.118Z,0.70
2022-12-22T07:31:27.884Z,0.40
2022-12-22T07:33:54.680Z,0.60
2022-12-22T07:36:21.379Z,0.52
2022-12-22T07:38:50.243Z,0.80
2022-12-22T07:41:37.750Z,0.50
2022-12-22T07:44:06.621Z,0.70
2022-12-22T07:46:36.439Z,0.55
2022-12-22T07:49:23.176Z,0.40
2022-12-22T07:51:50.002Z,0.40
2022-12-22T07:54:17.406Z,0.40
2022-12-22T07:56:46.553Z,0.47
2022-12-22T07:59:13.674Z,0.68
2022-12-22T08:01:41.516Z,2.03
2022-12-22T08:04:10.152Z,0.63
2022-12-22T08:06:37.232Z,0.40
2022-12-22T08:09:05.550Z,0.75
2022-12-22T08:11:32.333Z,0.30
2022-12-22T08:14:01.565Z,0.60
2022-12-22T08:16:28.925Z,0.50
2022-12-22T08:18:56.025Z,0.40
2022-12-22T08:21:23.220Z,0.40
2022-12-22T08:23:50.003Z,0.35
2022-12-22T08:26:25.462Z,0.50
2022-12-22T08:29:19.037Z,0.55
2022-12-22T08:31:46.095Z,0.70
2022-12-22T08:34:15.317Z,0.50
2022-12-22T08:36:50.848Z,0.50
2022-12-22T08:39:20.464Z,0.50
2022-12-22T08:41:50.016Z,0.55
2022-12-22T08:44:19.828Z,0.60
2022-12-22T08:46:46.850Z,0.50
2022-12-22T08:49:13.815Z,0.50
2022-12-22T08:51:40.647Z,0.45
2022-12-22T08:54:07.935Z,0.47
2022-12-22T08:56:35.789Z,0.30
2022-12-22T08:59:05.402Z,0.60
2022-12-22T09:01:33.502Z,0.45
2022-12-22T09:04:00.600Z,0.30
2022-12-22T09:06:29.806Z,0.50
2022-12-22T09:11:29.901Z,1.20
2022-12-22T09:13:59.518Z,0.82
2022-12-22T09:16:28.331Z,0.60
2022-12-22T09:18:56.478Z,0.50
2022-12-22T09:21:24.346Z,1.02
2022-12-22T09:23:51.109Z,0.90
2022-12-22T09:26:19.851Z,0.50
2022-12-22T09:28:50.535Z,0.47
2022-12-22T09:31:21.696Z,0.57
2022-12-22T09:33:49.050Z,0.50
2022-12-22T09:36:19.624Z,0.50
2022-12-22T09:38:46.898Z,0.50
2022-12-22T09:41:23.180Z,0.70
2022-12-22T09:43:50.022Z,0.40
2022-12-22T09:46:24.019Z,0.40
2022-12-22T09:48:51.570Z,0.63
2022-12-22T09:51:24.407Z,0.65
2022-12-22T09:54:01.078Z,0.50
2022-12-22T09:56:28.970Z,0.70
2022-12-22T09:58:56.067Z,0.80
2022-12-22T10:01:37.821Z,0.47
2022-12-22T10:04:09.465Z,0.60
2022-12-22T10:06:52.093Z,0.90
2022-12-22T10:12:25.043Z,0.50
2022-12-22T10:14:54.017Z,0.52
2022-12-22T10:17:31.403Z,0.55
2022-12-22T10:20:25.369Z,0.50
2022-12-22T10:23:06.846Z,0.60
2022-12-22T10:26:17.222Z,0.70
2022-12-22T10:28:28.081Z,0.60
2022-12-22T10:31:20.916Z,0.50
2022-12-22T10:33:50.895Z,0.55
2022-12-22T10:36:32.625Z,0.85
2022-12-22T10:39:03.167Z,0.63
2022-12-22T10:41:34.793Z,0.63
2022-12-22T10:44:11.115Z,1.00
2022-12-22T10:46:45.086Z,0.80
2022-12-22T10:49:20.413Z,0.90
2022-12-22T10:51:54.552Z,0.60
2022-12-22T10:54:42.530Z,0.60
2022-12-22T10:57:15.074Z,0.95
2022-12-22T11:02:50.892Z,0.90
2022-12-22T11:07:46.869Z,1.00
2022-12-22T11:10:26.203Z,1.00
2022-12-22T11:13:37.156Z,0.80
2022-12-22T11:16:09.231Z,0.90
2022-12-22T11:19:11.061Z,0.80
2022-12-22T11:21:42.657Z,0.98
2022-12-22T11:24:33.305Z,1.00
2022-12-22T11:27:22.964Z,0.93
2022-12-22T11:30:01.820Z,0.80
2022-12-22T11:32:41.861Z,1.02
2022-12-22T11:35:19.301Z,1.13
2022-12-22T11:38:24.642Z,1.00
2022-12-22T11:41:03.201Z,0.68
2022-12-22T11:44:07.665Z,0.70
2022-12-22T11:47:02.850Z,0.65
2022-12-22T11:49:37.840Z,0.85
2022-12-22T11:52:20.863Z,0.68
2022-12-22T11:55:38.865Z,0.88
2022-12-22T11:58:47.719Z,0.80
2022-12-22T12:01:39.707Z,0.88
2022-12-22T12:04:22.729Z,0.80
2022-12-22T12:07:10.261Z,0.80
2022-12-22T12:09:49.829Z,0.80
2022-12-22T12:12:27.826Z,0.80
2022-12-22T12:15:18.866Z,0.70
2022-12-22T12:17:55.258Z,1.08
2022-12-22T12:20:46.212Z,0.95
2022-12-22T12:24:04.375Z,1.27
2022-12-22T12:26:50.646Z,0.70
2022-12-22T12:29:21.774Z,1.33
2022-12-22T12:31:59.082Z,1.05
2022-12-22T12:34:30.705Z,0.85
2022-12-22T12:37:03.360Z,1.40
2022-12-22T12:39:54.638Z,1.00
2022-12-22T12:42:33.409Z,1.65
2022-12-22T12:45:03.186Z,1.10
2022-12-22T12:47:32.427Z,0.80
2022-12-22T12:50:34.107Z,1.00
2022-12-22T12:53:09.485Z,0.73
2022-12-22T12:55:39.118Z,0.93
2022-12-22T12:58:10.446Z,1.67
2022-12-22T13:00:40.823Z,1.00
2022-12-22T13:06:49.246Z,1.10
2022-12-22T13:12:54.179Z,1.00
2022-12-22T13:15:29.985Z,1.13
2022-12-22T13:17:57.469Z,1.00
2022-12-22T13:20:39.261Z,1.77
2022-12-22T13:23:12.843Z,1.23
2022-12-22T13:25:48.215Z,2.13
2022-12-22T13:28:19.967Z,1.40
2022-12-22T13:30:57.788Z,1.50
2022-12-22T13:33:29.011Z,1.15
2022-12-22T13:35:59.310Z,1.33
2022-12-22T13:38:32.035Z,1.15
2022-12-22T13:43:28.424Z,1.33
2022-12-22T13:45:57.481Z,1.17
2022-12-22T13:48:43.983Z,1.30
2022-12-22T13:51:28.519Z,1.48
2022-12-22T13:54:08.441Z,0.80
2022-12-22T13:56:58.159Z,1.70
2022-12-22T13:59:40.029Z,1.80
2022-12-22T14:02:09.870Z,1.07
2022-12-22T14:04:38.445Z,1.55
2022-12-22T14:07:15.293Z,1.60
2022-12-22T14:10:00.176Z,1.20
2022-12-22T14:12:32.234Z,0.93
2022-12-22T14:15:01.930Z,1.58
2022-12-22T14:17:35.327Z,0.90
2022-12-22T14:20:17.219Z,0.90
2022-12-22T14:22:51.627Z,0.90
2022-12-22T14:25:22.972Z,0.93
2022-12-22T14:27:53.192Z,0.80
2022-12-22T14:30:23.211Z,0.90
2022-12-22T14:32:55.350Z,0.85
2022-12-22T14:38:08.088Z,0.82
2022-12-22T14:40:40.051Z,1.00
2022-12-22T14:43:17.156Z,1.10
2022-12-22T14:45:49.181Z,0.70
2022-12-22T14:48:46.553Z,0.80
2022-12-22T14:51:18.677Z,1.00
2022-12-22T14:53:52.067Z,0.90
2022-12-22T14:56:19.525Z,0.73
2022-12-22T14:58:48.332Z,1.23
2022-12-22T15:01:17.046Z,0.80
2022-12-22T15:03:45.426Z,0.70
2022-12-22T15:06:43.683Z,0.70
2022-12-22T15:10:13.280Z,1.00
2022-12-22T15:12:18.777Z,0.70
2022-12-22T15:14:49.666Z,0.60
2022-12-22T15:17:25.961Z,0.93
2022-12-22T15:19:57.707Z,0.75
2022-12-22T15:22:25.455Z,0.80
2022-12-22T15:24:52.302Z,0.98
2022-12-22T15:27:19.009Z,0.90
2022-12-22T15:29:45.715Z,0.93
2022-12-22T15:32:13.345Z,0.95
2022-12-22T15:34:40.258Z,0.75
2022-12-22T15:37:06.960Z,1.15
2022-12-22T15:39:33.648Z,0.90
2022-12-22T15:42:00.368Z,0.80
2022-12-22T15:44:27.038Z,1.35
2022-12-22T15:46:57.605Z,0.93
2022-12-22T15:49:26.988Z,0.85
2022-12-22T15:51:57.029Z,0.85
2022-12-22T15:54:26.807Z,0.88
2022-12-22T15:56:54.522Z,1.00
2022-12-22T15:59:28.093Z,1.25
2022-12-22T16:02:01.429Z,0.90
2022-12-22T16:04:32.766Z,1.00
2022-12-22T16:06:59.773Z,0.70
2022-12-22T16:09:32.452Z,1.02
2022-12-22T16:11:59.185Z,0.80
2022-12-22T16:14:25.937Z,1.00
2022-12-22T16:16:52.667Z,2.10
2022-12-22T16:19:19.415Z,0.93
2022-12-22T16:21:50.501Z,0.80
2022-12-22T16:24:35.799Z,1.13
2022-12-22T16:27:02.872Z,0.90
2022-12-22T16:29:29.817Z,1.00
2022-12-22T16:32:29.797Z,1.30
2022-12-22T16:35:08.452Z,1.00
2022-12-22T16:37:35.180Z,0.88
2022-12-22T16:40:02.473Z,1.35
2022-12-22T16:45:22.640Z,0.77
2022-12-22T16:47:52.967Z,1.00
2022-12-22T16:50:32.217Z,1.02
2022-12-22T16:53:03.747Z,0.95
2022-12-22T16:55:31.550Z,1.45
2022-12-22T16:57:58.305Z,0.80
2022-12-22T17:00:28.307Z,0.90
2022-12-22T17:02:58.557Z,0.80
2022-12-22T17:05:43.755Z,1.63
2022-12-22T17:08:27.740Z,1.20
2022-12-22T17:10:56.643Z,0.70
2022-12-22T17:13:24.319Z,1.00
2022-12-22T17:15:51.013Z,0.85
2022-12-22T17:18:20.431Z,0.70
2022-12-22T17:20:50.193Z,0.77
2022-12-22T17:23:43.121Z,0.77
2022-12-22T17:28:39.208Z,0.85
2022-12-22T17:31:06.420Z,0.80
2022-12-22T17:33:33.296Z,0.60
2022-12-22T17:36:01.088Z,0.90
2022-12-22T17:38:28.862Z,1.08
2022-12-22T17:40:57.419Z,1.20
2022-12-22T17:43:24.154Z,0.73
2022-12-22T17:45:50.865Z,0.93
2022-12-22T17:48:17.743Z,0.93
2022-12-22T17:50:49.408Z,1.10
2022-12-22T17:53:20.008Z,1.30
2022-12-22T17:58:35.090Z,0.70
2022-12-22T18:01:01.838Z,0.70
2022-12-22T18:03:28.573Z,1.27
2022-12-22T18:05:55.474Z,1.75
2022-12-22T18:08:22.365Z,1.10
2022-12-22T18:10:49.433Z,1.55
2022-12-22T18:13:22.606Z,0.90
2022-12-22T18:15:49.362Z,1.40
2022-12-22T18:18:18.094Z,0.90
2022-12-22T18:20:46.951Z,1.50
2022-12-22T18:23:34.359Z,1.33
2022-12-22T18:26:01.542Z,1.10
2022-12-22T18:28:28.235Z,1.10
2022-12-22T18:30:54.919Z,1.30
2022-12-22T18:33:21.579Z,1.40
2022-12-22T18:35:49.128Z,1.40
2022-12-22T18:38:30.511Z,1.10
2022-12-22T18:40:57.617Z,0.93
2022-12-22T18:43:24.526Z,1.42
2022-12-22T18:45:51.348Z,1.38
2022-12-22T18:48:18.050Z,1.05
2022-12-22T18:50:44.783Z,1.05
2022-12-22T18:53:29.919Z,1.40
2022-12-22T18:55:57.609Z,0.82
2022-12-22T18:58:25.020Z,0.90
2022-12-22T19:00:53.544Z,1.00
2022-12-22T19:03:29.283Z,0.80
2022-12-22T19:05:56.914Z,1.00
2022-12-22T19:08:26.182Z,1.20
2022-12-22T19:11:03.885Z,1.02
2022-12-22T19:13:34.245Z,0.70
2022-12-22T19:16:01.615Z,1.10
2022-12-22T19:18:28.462Z,0.85
2022-12-22T19:20:55.878Z,0.95
2022-12-22T19:23:23.966Z,0.88
2022-12-22T19:25:56.008Z,0.73
2022-12-22T19:28:25.196Z,1.10
2022-12-22T19:30:52.463Z,1.17
2022-12-22T19:33:45.718Z,1.77
2022-12-22T19:36:18.940Z,1.63
2022-12-22T19:38:50.274Z,1.13
2022-12-22T19:41:32.022Z,1.40
2022-12-22T19:43:58.767Z,1.05
2022-12-22T19:46:28.824Z,1.15
2022-12-22T19:48:56.919Z,0.85
2022-12-22T19:51:23.589Z,1.70
2022-12-22T19:53:50.254Z,1.27
2022-12-22T19:56:24.057Z,1.58
2022-12-22T19:58:51.368Z,1.00
2022-12-22T20:01:18.208Z,1.20
2022-12-22T20:03:44.945Z,1.23
2022-12-22T20:06:11.752Z,1.10
2022-12-22T20:08:38.439Z,0.90
2022-12-22T20:11:15.466Z,0.80
2022-12-22T20:13:42.671Z,0.90
2022-12-22T20:16:16.865Z,1.13
2022-12-22T20:18:46.172Z,0.98
2022-12-22T20:21:33.131Z,1.00
2022-12-22T20:24:01.440Z,0.80
2022-12-22T20:26:28.228Z,0.70
2022-12-22T20:28:55.026Z,0.98
2022-12-22T20:31:23.962Z,1.10
2022-12-22T20:33:51.833Z,0.80
2022-12-22T20:36:28.626Z,0.80
2022-12-22T20:38:57.261Z,0.50
2022-12-22T20:41:24.261Z,0.85
2022-12-22T20:43:51.839Z,0.70
2022-12-22T20:46:21.312Z,1.08
2022-12-22T20:48:52.075Z,1.08
2022-12-22T20:51:20.873Z,1.00
2022-12-22T20:53:48.094Z,0.90
2022-12-22T20:56:30.060Z,0.63
2022-12-22T20:58:57.803Z,0.70
2022-12-22T21:01:24.967Z,0.77
2022-12-22T21:03:51.738Z,0.98
2022-12-22T21:06:27.331Z,0.60
2022-12-22T21:08:56.160Z,0.65
2022-12-22T21:11:23.070Z,0.90
2022-12-22T21:13:50.435Z,0.50
2022-12-22T21:16:20.169Z,0.68
2022-12-22T21:18:46.878Z,0.80
2022-12-22T21:21:13.545Z,0.60
2022-12-22T21:23:40.297Z,0.70
2022-12-22T21:26:18.739Z,0.60
2022-12-22T21:28:46.157Z,0.90
2022-12-22T21:31:13.070Z,5.43
2022-12-22T21:33:39.765Z,4.07
2022-12-22T21:36:22.412Z,1.23
2022-12-22T21:38:51.968Z,0.68
2022-12-22T21:41:18.854Z,1.30
2022-12-22T21:43:45.520Z,1.90
2022-12-22T21:46:13.248Z,1.48
2022-12-22T21:48:40.007Z,2.05
2022-12-22T21:51:06.774Z,3.70
2022-12-22T21:53:33.439Z,2.00
2022-12-22T21:56:00.154Z,1.73
2022-12-22T21:58:26.794Z,1.52
2022-12-22T22:00:53.428Z,1.95
2022-12-22T22:03:20.187Z,1.65
2022-12-22T22:05:47.931Z,0.88
2022-12-22T22:08:14.564Z,0.45
2022-12-22T22:10:43.353Z,0.77
2022-12-22T22:13:15.086Z,1.30
2022-12-22T22:15:42.376Z,1.13
2022-12-22T22:18:15.456Z,1.50
2022-12-22T22:20:42.345Z,1.50
2022-12-22T22:23:11.914Z,1.30
2022-12-22T22:25:39.005Z,1.80
2022-12-22T22:28:05.978Z,2.10
2022-12-22T22:30:32.926Z,1.45
2022-12-22T22:32:59.644Z,1.40
2022-12-22T22:35:27.224Z,0.93
2022-12-22T22:37:55.011Z,1.20
2022-12-22T22:40:23.101Z,1.63
2022-12-22T22:42:49.799Z,0.90
2022-12-22T22:45:23.765Z,0.60
2022-12-22T22:47:52.139Z,0.60
2022-12-22T22:50:20.231Z,0.50
2022-12-22T22:52:47.369Z,0.70
2022-12-22T22:55:14.857Z,0.55
2022-12-22T22:57:42.035Z,0.57
2022-12-22T23:00:11.735Z,0.50
2022-12-22T23:02:38.859Z,0.50
2022-12-22T23:05:06.322Z,0.68
2022-12-22T23:07:33.774Z,0.45
2022-12-22T23:10:00.562Z,0.60
2022-12-22T23:12:27.452Z,0.40
2022-12-22T23:14:54.120Z,1.08
2022-12-22T23:17:20.871Z,1.38
2022-12-22T23:19:47.534Z,5.78
2022-12-22T23:22:14.203Z,4.80
2022-12-22T23:24:40.845Z,1.65
2022-12-22T23:27:07.598Z,1.00
2022-12-22T23:29:35.417Z,1.10
2022-12-22T23:32:02.176Z,0.82
2022-12-22T23:34:28.885Z,0.70
2022-12-22T23:36:55.692Z,0.70
2022-12-22T23:39:22.470Z,0.70
2022-12-22T23:41:49.176Z,0.80
2022-12-22T23:44:15.867Z,0.60
2022-12-22T23:46:42.574Z,0.45
2022-12-22T23:49:11.601Z,0.40
2022-12-22T23:51:38.332Z,0.40
2022-12-22T23:54:05.166Z,0.30
2022-12-22T23:56:32.100Z,0.60
2022-12-22T23:58:59.119Z,0.40
